sensor_id;sensor_type;location;lat;lon;timestamp;P1;durP1;ratioP1;P2;durP2;ratioP2
2998;SDS011;1509;51.964;7.628;2023-01-01T00:02:19;10.83;;;6.00;;
2998;SDS011;1509;51.964;7.628;2023-01-01T00:04:45;15.53;;;9.93;;
2998;SDS011;1509;51.964;7.628;2023-01-01T00:07:12;12.80;;;7.50;;
2998;SDS011;1509;51.964;7.628;2023-01-01T00:09:37;11.93;;;6.97;;
2998;SDS011;1509;51.964;7.628;2023-01-01T00:12:22;13.40;;;8.27;;
2998;SDS011;1509;51.964;7.628;2023-01-01T00:14:48;14.37;;;9.20;;
2998;SDS011;1509;51.964;7.628;2023-01-01T00:17:14;11.23;;;8.40;;
2998;SDS011;1509;51.964;7.628;2023-01-01T00:19:43;9.80;;;8.63;;
2998;SDS011;1509;51.964;7.628;2023-01-01T00:22:12;15.37;;;8.83;;
2998;SDS011;1509;51.964;7.628;2023-01-01T00:24:38;12.30;;;8.70;;
2998;SDS011;1509;51.964;7.628;2023-01-01T00:27:04;15.37;;;9.93;;
2998;SDS011;1509;51.964;7.628;2023-01-01T00:29:30;16.53;;;11.00;;
2998;SDS011;1509;51.964;7.628;2023-01-01T00:31:56;15.17;;;10.03;;
2998;SDS011;1509;51.964;7.628;2023-01-01T00:34:22;15.60;;;9.60;;
2998;SDS011;1509;51.964;7.628;2023-01-01T00:36:48;13.53;;;11.33;;
2998;SDS011;1509;51.964;7.628;2023-01-01T00:39:14;18.90;;;10.03;;
2998;SDS011;1509;51.964;7.628;2023-01-01T00:41:41;16.30;;;9.27;;
2998;SDS011;1509;51.964;7.628;2023-01-01T00:44:07;20.57;;;10.10;;
2998;SDS011;1509;51.964;7.628;2023-01-01T00:46:33;18.60;;;10.10;;
2998;SDS011;1509;51.964;7.628;2023-01-01T00:48:59;13.30;;;9.77;;
2998;SDS011;1509;51.964;7.628;2023-01-01T00:51:25;12.77;;;9.43;;
2998;SDS011;1509;51.964;7.628;2023-01-01T00:53:51;13.40;;;8.57;;
2998;SDS011;1509;51.964;7.628;2023-01-01T00:56:17;11.10;;;7.63;;
2998;SDS011;1509;51.964;7.628;2023-01-01T00:58:42;12.10;;;7.73;;
2998;SDS011;1509;51.964;7.628;2023-01-01T01:01:08;16.90;;;9.97;;
2998;SDS011;1509;51.964;7.628;2023-01-01T01:03:36;13.77;;;8.60;;
2998;SDS011;1509;51.964;7.628;2023-01-01T01:08:29;15.67;;;8.60;;
2998;SDS011;1509;51.964;7.628;2023-01-01T01:11:10;14.90;;;7.47;;
2998;SDS011;1509;51.964;7.628;2023-01-01T01:13:36;11.17;;;7.57;;
2998;SDS011;1509;51.964;7.628;2023-01-01T01:16:15;12.03;;;7.97;;
2998;SDS011;1509;51.964;7.628;2023-01-01T01:18:43;14.87;;;7.10;;
2998;SDS011;1509;51.964;7.628;2023-01-01T01:21:09;8.77;;;6.10;;
2998;SDS011;1509;51.964;7.628;2023-01-01T01:23:39;12.77;;;6.80;;
2998;SDS011;1509;51.964;7.628;2023-01-01T01:26:12;14.53;;;7.80;;
2998;SDS011;1509;51.964;7.628;2023-01-01T01:28:44;9.37;;;5.67;;
2998;SDS011;1509;51.964;7.628;2023-01-01T01:31:10;11.97;;;6.40;;
2998;SDS011;1509;51.964;7.628;2023-01-01T01:33:36;10.07;;;6.33;;
2998;SDS011;1509;51.964;7.628;2023-01-01T01:36:03;9.97;;;6.87;;
2998;SDS011;1509;51.964;7.628;2023-01-01T01:38:33;9.23;;;6.70;;
2998;SDS011;1509;51.964;7.628;2023-01-01T01:40:59;11.33;;;5.97;;
2998;SDS011;1509;51.964;7.628;2023-01-01T01:46:00;10.30;;;6.33;;
2998;SDS011;1509;51.964;7.628;2023-01-01T01:48:44;9.50;;;6.50;;
2998;SDS011;1509;51.964;7.628;2023-01-01T01:51:12;10.67;;;5.93;;
2998;SDS011;1509;51.964;7.628;2023-01-01T01:53:43;10.40;;;6.33;;
2998;SDS011;1509;51.964;7.628;2023-01-01T01:56:12;16.50;;;7.33;;
2998;SDS011;1509;51.964;7.628;2023-01-01T01:58:41;9.37;;;6.10;;
2998;SDS011;1509;51.964;7.628;2023-01-01T02:01:07;12.93;;;6.07;;
2998;SDS011;1509;51.964;7.628;2023-01-01T02:03:37;10.40;;;5.83;;
2998;SDS011;1509;51.964;7.628;2023-01-01T02:06:16;10.93;;;6.20;;
2998;SDS011;1509;51.964;7.628;2023-01-01T02:08:43;11.53;;;5.30;;
2998;SDS011;1509;51.964;7.628;2023-01-01T02:11:09;8.50;;;5.87;;
2998;SDS011;1509;51.964;7.628;2023-01-01T02:13:35;8.93;;;6.37;;
2998;SDS011;1509;51.964;7.628;2023-01-01T02:21:33;7.80;;;5.50;;
2998;SDS011;1509;51.964;7.628;2023-01-01T02:26:52;15.07;;;8.30;;
2998;SDS011;1509;51.964;7.628;2023-01-01T02:31:49;15.70;;;6.73;;
2998;SDS011;1509;51.964;7.628;2023-01-01T02:34:35;11.20;;;6.10;;
2998;SDS011;1509;51.964;7.628;2023-01-01T02:37:05;9.77;;;6.40;;
2998;SDS011;1509;51.964;7.628;2023-01-01T02:39:34;10.50;;;7.10;;
2998;SDS011;1509;51.964;7.628;2023-01-01T02:42:04;12.00;;;5.30;;
2998;SDS011;1509;51.964;7.628;2023-01-01T02:44:33;8.33;;;5.30;;
2998;SDS011;1509;51.964;7.628;2023-01-01T02:47:09;9.83;;;5.07;;
2998;SDS011;1509;51.964;7.628;2023-01-01T02:49:40;10.60;;;5.90;;
2998;SDS011;1509;51.964;7.628;2023-01-01T02:52:41;17.47;;;6.03;;
2998;SDS011;1509;51.964;7.628;2023-01-01T02:55:44;10.00;;;7.30;;
2998;SDS011;1509;51.964;7.628;2023-01-01T03:01:30;13.03;;;7.63;;
2998;SDS011;1509;51.964;7.628;2023-01-01T03:04:00;11.50;;;6.87;;
2998;SDS011;1509;51.964;7.628;2023-01-01T03:06:41;9.33;;;7.53;;
2998;SDS011;1509;51.964;7.628;2023-01-01T03:09:29;11.40;;;7.03;;
2998;SDS011;1509;51.964;7.628;2023-01-01T03:12:23;11.70;;;7.07;;
2998;SDS011;1509;51.964;7.628;2023-01-01T03:15:49;8.63;;;6.40;;
2998;SDS011;1509;51.964;7.628;2023-01-01T03:20:27;10.03;;;6.43;;
2998;SDS011;1509;51.964;7.628;2023-01-01T03:22:57;11.40;;;6.23;;
2998;SDS011;1509;51.964;7.628;2023-01-01T03:25:27;9.77;;;5.97;;
2998;SDS011;1509;51.964;7.628;2023-01-01T03:27:58;9.43;;;5.63;;
2998;SDS011;1509;51.964;7.628;2023-01-01T03:30:26;11.33;;;6.97;;
2998;SDS011;1509;51.964;7.628;2023-01-01T03:32:58;9.40;;;6.80;;
2998;SDS011;1509;51.964;7.628;2023-01-01T03:38:00;10.17;;;7.03;;
2998;SDS011;1509;51.964;7.628;2023-01-01T03:40:29;10.60;;;6.73;;
2998;SDS011;1509;51.964;7.628;2023-01-01T03:42:59;12.43;;;6.93;;
2998;SDS011;1509;51.964;7.628;2023-01-01T03:45:35;6.47;;;5.40;;
2998;SDS011;1509;51.964;7.628;2023-01-01T03:48:03;9.87;;;5.50;;
2998;SDS011;1509;51.964;7.628;2023-01-01T03:50:36;9.47;;;4.90;;
2998;SDS011;1509;51.964;7.628;2023-01-01T03:53:16;9.73;;;4.87;;
2998;SDS011;1509;51.964;7.628;2023-01-01T03:56:18;8.53;;;5.10;;
2998;SDS011;1509;51.964;7.628;2023-01-01T03:59:06;11.37;;;5.70;;
2998;SDS011;1509;51.964;7.628;2023-01-01T04:01:44;8.70;;;4.93;;
2998;SDS011;1509;51.964;7.628;2023-01-01T04:04:17;8.90;;;4.73;;
2998;SDS011;1509;51.964;7.628;2023-01-01T04:06:43;8.10;;;4.07;;
2998;SDS011;1509;51.964;7.628;2023-01-01T04:09:10;6.67;;;4.33;;
2998;SDS011;1509;51.964;7.628;2023-01-01T04:11:40;4.73;;;3.53;;
2998;SDS011;1509;51.964;7.628;2023-01-01T04:14:29;6.17;;;4.20;;
2998;SDS011;1509;51.964;7.628;2023-01-01T04:16:57;8.87;;;3.53;;
2998;SDS011;1509;51.964;7.628;2023-01-01T04:19:24;8.20;;;3.83;;
2998;SDS011;1509;51.964;7.628;2023-01-01T04:21:50;6.23;;;3.63;;
2998;SDS011;1509;51.964;7.628;2023-01-01T04:24:15;5.93;;;2.87;;
2998;SDS011;1509;51.964;7.628;2023-01-01T04:26:41;5.93;;;4.23;;
2998;SDS011;1509;51.964;7.628;2023-01-01T04:29:07;4.00;;;2.43;;
2998;SDS011;1509;51.964;7.628;2023-01-01T04:31:33;5.50;;;2.60;;
2998;SDS011;1509;51.964;7.628;2023-01-01T04:33:59;4.23;;;2.27;;
2998;SDS011;1509;51.964;7.628;2023-01-01T04:36:25;4.17;;;2.50;;
2998;SDS011;1509;51.964;7.628;2023-01-01T04:38:51;4.80;;;2.00;;
2998;SDS011;1509;51.964;7.628;2023-01-01T04:41:17;7.73;;;2.57;;
2998;SDS011;1509;51.964;7.628;2023-01-01T04:43:45;7.03;;;2.47;;
2998;SDS011;1509;51.964;7.628;2023-01-01T04:46:15;3.10;;;1.77;;
2998;SDS011;1509;51.964;7.628;2023-01-01T04:48:42;4.03;;;1.83;;
2998;SDS011;1509;51.964;7.628;2023-01-01T04:51:08;4.23;;;1.70;;
2998;SDS011;1509;51.964;7.628;2023-01-01T04:53:35;4.57;;;2.27;;
2998;SDS011;1509;51.964;7.628;2023-01-01T04:56:08;6.50;;;2.27;;
2998;SDS011;1509;51.964;7.628;2023-01-01T04:58:36;5.60;;;2.20;;
2998;SDS011;1509;51.964;7.628;2023-01-01T05:01:04;3.93;;;1.83;;
2998;SDS011;1509;51.964;7.628;2023-01-01T05:03:30;8.00;;;1.93;;
2998;SDS011;1509;51.964;7.628;2023-01-01T05:06:00;3.27;;;1.60;;
2998;SDS011;1509;51.964;7.628;2023-01-01T05:08:37;4.00;;;1.90;;
2998;SDS011;1509;51.964;7.628;2023-01-01T05:11:26;2.90;;;1.60;;
2998;SDS011;1509;51.964;7.628;2023-01-01T05:13:52;3.17;;;1.60;;
2998;SDS011;1509;51.964;7.628;2023-01-01T05:16:20;4.23;;;2.10;;
2998;SDS011;1509;51.964;7.628;2023-01-01T05:18:47;3.17;;;1.80;;
2998;SDS011;1509;51.964;7.628;2023-01-01T05:21:17;3.43;;;1.70;;
2998;SDS011;1509;51.964;7.628;2023-01-01T05:23:45;4.30;;;1.70;;
2998;SDS011;1509;51.964;7.628;2023-01-01T05:26:12;4.43;;;2.30;;
2998;SDS011;1509;51.964;7.628;2023-01-01T05:28:39;3.43;;;2.10;;
2998;SDS011;1509;51.964;7.628;2023-01-01T05:31:15;4.40;;;2.10;;
2998;SDS011;1509;51.964;7.628;2023-01-01T05:33:43;2.83;;;1.60;;
2998;SDS011;1509;51.964;7.628;2023-01-01T05:36:09;4.53;;;1.57;;
2998;SDS011;1509;51.964;7.628;2023-01-01T05:38:39;5.77;;;2.10;;
2998;SDS011;1509;51.964;7.628;2023-01-01T05:41:08;7.27;;;2.00;;
2998;SDS011;1509;51.964;7.628;2023-01-01T05:43:35;4.03;;;1.47;;
2998;SDS011;1509;51.964;7.628;2023-01-01T05:46:03;4.17;;;1.73;;
2998;SDS011;1509;51.964;7.628;2023-01-01T05:48:34;3.83;;;2.00;;
2998;SDS011;1509;51.964;7.628;2023-01-01T05:51:04;6.57;;;2.27;;
2998;SDS011;1509;51.964;7.628;2023-01-01T05:53:31;5.13;;;2.10;;
2998;SDS011;1509;51.964;7.628;2023-01-01T05:55:57;4.10;;;1.87;;
2998;SDS011;1509;51.964;7.628;2023-01-01T05:58:23;4.47;;;1.97;;
2998;SDS011;1509;51.964;7.628;2023-01-01T06:00:49;6.40;;;1.67;;
2998;SDS011;1509;51.964;7.628;2023-01-01T06:03:15;2.80;;;1.57;;
2998;SDS011;1509;51.964;7.628;2023-01-01T06:05:40;4.03;;;2.40;;
2998;SDS011;1509;51.964;7.628;2023-01-01T06:08:06;3.17;;;1.77;;
2998;SDS011;1509;51.964;7.628;2023-01-01T06:10:32;4.73;;;2.20;;
2998;SDS011;1509;51.964;7.628;2023-01-01T06:12:57;4.40;;;1.97;;
2998;SDS011;1509;51.964;7.628;2023-01-01T06:15:23;5.40;;;1.60;;
2998;SDS011;1509;51.964;7.628;2023-01-01T06:17:50;4.63;;;2.10;;
2998;SDS011;1509;51.964;7.628;2023-01-01T06:20:15;3.97;;;1.93;;
2998;SDS011;1509;51.964;7.628;2023-01-01T06:22:41;3.77;;;1.90;;
2998;SDS011;1509;51.964;7.628;2023-01-01T06:25:13;4.77;;;2.00;;
2998;SDS011;1509;51.964;7.628;2023-01-01T06:27:39;4.97;;;1.80;;
2998;SDS011;1509;51.964;7.628;2023-01-01T06:30:04;3.87;;;2.07;;
2998;SDS011;1509;51.964;7.628;2023-01-01T06:32:31;8.03;;;2.37;;
2998;SDS011;1509;51.964;7.628;2023-01-01T06:34:57;7.37;;;2.20;;
2998;SDS011;1509;51.964;7.628;2023-01-01T06:37:23;4.90;;;2.00;;
2998;SDS011;1509;51.964;7.628;2023-01-01T06:39:49;2.07;;;1.57;;
2998;SDS011;1509;51.964;7.628;2023-01-01T06:42:15;5.20;;;2.10;;
2998;SDS011;1509;51.964;7.628;2023-01-01T06:44:40;5.60;;;4.23;;
2998;SDS011;1509;51.964;7.628;2023-01-01T06:47:06;6.83;;;1.83;;
2998;SDS011;1509;51.964;7.628;2023-01-01T06:49:31;4.53;;;1.70;;
2998;SDS011;1509;51.964;7.628;2023-01-01T06:51:57;6.43;;;1.90;;
2998;SDS011;1509;51.964;7.628;2023-01-01T06:54:23;5.27;;;2.43;;
2998;SDS011;1509;51.964;7.628;2023-01-01T06:56:48;3.93;;;1.80;;
2998;SDS011;1509;51.964;7.628;2023-01-01T06:59:17;9.27;;;2.27;;
2998;SDS011;1509;51.964;7.628;2023-01-01T07:01:42;3.63;;;1.67;;
2998;SDS011;1509;51.964;7.628;2023-01-01T07:04:13;5.03;;;2.17;;
2998;SDS011;1509;51.964;7.628;2023-01-01T07:06:40;4.70;;;1.70;;
2998;SDS011;1509;51.964;7.628;2023-01-01T07:09:06;4.60;;;1.90;;
2998;SDS011;1509;51.964;7.628;2023-01-01T07:11:32;5.27;;;2.93;;
2998;SDS011;1509;51.964;7.628;2023-01-01T07:13:58;3.13;;;1.70;;
2998;SDS011;1509;51.964;7.628;2023-01-01T07:16:24;2.83;;;1.60;;
2998;SDS011;1509;51.964;7.628;2023-01-01T07:18:50;5.30;;;2.27;;
2998;SDS011;1509;51.964;7.628;2023-01-01T07:21:29;4.10;;;1.87;;
2998;SDS011;1509;51.964;7.628;2023-01-01T07:23:58;3.93;;;1.80;;
2998;SDS011;1509;51.964;7.628;2023-01-01T07:26:25;5.03;;;1.90;;
2998;SDS011;1509;51.964;7.628;2023-01-01T07:28:52;5.50;;;1.87;;
2998;SDS011;1509;51.964;7.628;2023-01-01T07:31:21;5.47;;;2.60;;
2998;SDS011;1509;51.964;7.628;2023-01-01T07:33:47;4.70;;;1.63;;
2998;SDS011;1509;51.964;7.628;2023-01-01T07:36:12;2.60;;;1.73;;
2998;SDS011;1509;51.964;7.628;2023-01-01T07:38:38;5.07;;;2.27;;
2998;SDS011;1509;51.964;7.628;2023-01-01T07:41:04;5.40;;;2.13;;
2998;SDS011;1509;51.964;7.628;2023-01-01T07:43:29;9.03;;;2.60;;
2998;SDS011;1509;51.964;7.628;2023-01-01T07:45:58;4.63;;;2.27;;
2998;SDS011;1509;51.964;7.628;2023-01-01T07:48:24;4.07;;;2.30;;
2998;SDS011;1509;51.964;7.628;2023-01-01T07:50:50;7.53;;;2.03;;
2998;SDS011;1509;51.964;7.628;2023-01-01T07:53:15;7.10;;;2.60;;
2998;SDS011;1509;51.964;7.628;2023-01-01T07:55:41;3.93;;;2.27;;
2998;SDS011;1509;51.964;7.628;2023-01-01T07:58:07;6.00;;;2.60;;
2998;SDS011;1509;51.964;7.628;2023-01-01T08:00:34;3.93;;;2.60;;
2998;SDS011;1509;51.964;7.628;2023-01-01T08:03:00;4.53;;;2.50;;
2998;SDS011;1509;51.964;7.628;2023-01-01T08:05:26;5.37;;;2.30;;
2998;SDS011;1509;51.964;7.628;2023-01-01T08:07:51;8.60;;;2.70;;
2998;SDS011;1509;51.964;7.628;2023-01-01T08:10:17;4.43;;;2.27;;
2998;SDS011;1509;51.964;7.628;2023-01-01T08:12:44;3.30;;;2.10;;
2998;SDS011;1509;51.964;7.628;2023-01-01T08:15:10;5.43;;;3.07;;
2998;SDS011;1509;51.964;7.628;2023-01-01T08:17:36;4.10;;;2.53;;
2998;SDS011;1509;51.964;7.628;2023-01-01T08:20:03;6.17;;;2.53;;
2998;SDS011;1509;51.964;7.628;2023-01-01T08:22:29;4.67;;;2.77;;
2998;SDS011;1509;51.964;7.628;2023-01-01T08:24:55;4.23;;;2.20;;
2998;SDS011;1509;51.964;7.628;2023-01-01T08:27:20;8.03;;;2.80;;
2998;SDS011;1509;51.964;7.628;2023-01-01T08:29:46;7.20;;;2.87;;
2998;SDS011;1509;51.964;7.628;2023-01-01T08:32:11;8.40;;;2.80;;
2998;SDS011;1509;51.964;7.628;2023-01-01T08:34:37;7.07;;;3.23;;
2998;SDS011;1509;51.964;7.628;2023-01-01T08:37:03;7.30;;;3.67;;
2998;SDS011;1509;51.964;7.628;2023-01-01T08:39:29;6.57;;;2.77;;
2998;SDS011;1509;51.964;7.628;2023-01-01T08:41:55;6.43;;;2.73;;
2998;SDS011;1509;51.964;7.628;2023-01-01T08:44:21;6.13;;;3.27;;
2998;SDS011;1509;51.964;7.628;2023-01-01T08:46:47;5.33;;;3.17;;
2998;SDS011;1509;51.964;7.628;2023-01-01T08:49:16;4.73;;;2.80;;
2998;SDS011;1509;51.964;7.628;2023-01-01T08:51:42;5.53;;;3.20;;
2998;SDS011;1509;51.964;7.628;2023-01-01T08:54:07;7.97;;;3.30;;
2998;SDS011;1509;51.964;7.628;2023-01-01T08:56:33;8.83;;;4.50;;
2998;SDS011;1509;51.964;7.628;2023-01-01T08:58:59;5.60;;;2.70;;
2998;SDS011;1509;51.964;7.628;2023-01-01T09:01:25;11.10;;;3.63;;
2998;SDS011;1509;51.964;7.628;2023-01-01T09:03:51;8.17;;;4.00;;
2998;SDS011;1509;51.964;7.628;2023-01-01T09:06:17;11.57;;;3.63;;
2998;SDS011;1509;51.964;7.628;2023-01-01T09:08:43;5.47;;;3.20;;
2998;SDS011;1509;51.964;7.628;2023-01-01T09:11:20;7.57;;;2.90;;
2998;SDS011;1509;51.964;7.628;2023-01-01T09:13:48;8.87;;;5.80;;
2998;SDS011;1509;51.964;7.628;2023-01-01T09:16:13;6.43;;;3.00;;
2998;SDS011;1509;51.964;7.628;2023-01-01T09:18:39;6.43;;;3.40;;
2998;SDS011;1509;51.964;7.628;2023-01-01T09:21:04;8.90;;;3.20;;
2998;SDS011;1509;51.964;7.628;2023-01-01T09:23:30;7.50;;;3.50;;
2998;SDS011;1509;51.964;7.628;2023-01-01T09:26:00;5.37;;;2.73;;
2998;SDS011;1509;51.964;7.628;2023-01-01T09:28:29;6.83;;;2.63;;
2998;SDS011;1509;51.964;7.628;2023-01-01T09:30:54;6.53;;;2.80;;
2998;SDS011;1509;51.964;7.628;2023-01-01T09:33:20;5.80;;;2.60;;
2998;SDS011;1509;51.964;7.628;2023-01-01T09:35:46;8.97;;;3.47;;
2998;SDS011;1509;51.964;7.628;2023-01-01T09:38:11;7.57;;;3.03;;
2998;SDS011;1509;51.964;7.628;2023-01-01T09:40:47;7.97;;;3.50;;
2998;SDS011;1509;51.964;7.628;2023-01-01T09:43:20;5.57;;;2.73;;
2998;SDS011;1509;51.964;7.628;2023-01-01T09:45:56;8.10;;;3.60;;
2998;SDS011;1509;51.964;7.628;2023-01-01T09:48:28;3.90;;;3.10;;
2998;SDS011;1509;51.964;7.628;2023-01-01T09:50:57;7.57;;;3.17;;
2998;SDS011;1509;51.964;7.628;2023-01-01T09:56:02;9.63;;;3.10;;
2998;SDS011;1509;51.964;7.628;2023-01-01T09:58:31;7.10;;;3.13;;
2998;SDS011;1509;51.964;7.628;2023-01-01T10:01:00;7.10;;;3.17;;
2998;SDS011;1509;51.964;7.628;2023-01-01T10:07:09;9.87;;;4.60;;
2998;SDS011;1509;51.964;7.628;2023-01-01T10:09:59;12.43;;;4.30;;
2998;SDS011;1509;51.964;7.628;2023-01-01T10:15:33;6.83;;;3.90;;
2998;SDS011;1509;51.964;7.628;2023-01-01T10:18:13;6.17;;;3.83;;
2998;SDS011;1509;51.964;7.628;2023-01-01T10:20:47;6.80;;;3.93;;
2998;SDS011;1509;51.964;7.628;2023-01-01T10:23:23;7.20;;;4.50;;
2998;SDS011;1509;51.964;7.628;2023-01-01T10:25:52;8.93;;;4.03;;
2998;SDS011;1509;51.964;7.628;2023-01-01T10:31:17;6.97;;;3.90;;
2998;SDS011;1509;51.964;7.628;2023-01-01T10:33:51;14.47;;;5.50;;
2998;SDS011;1509;51.964;7.628;2023-01-01T10:36:17;7.53;;;3.93;;
2998;SDS011;1509;51.964;7.628;2023-01-01T10:38:44;7.03;;;5.00;;
2998;SDS011;1509;51.964;7.628;2023-01-01T10:41:11;5.93;;;4.20;;
2998;SDS011;1509;51.964;7.628;2023-01-01T10:43:37;8.50;;;4.37;;
2998;SDS011;1509;51.964;7.628;2023-01-01T10:46:03;6.70;;;4.77;;
2998;SDS011;1509;51.964;7.628;2023-01-01T10:48:30;8.50;;;4.03;;
2998;SDS011;1509;51.964;7.628;2023-01-01T10:50:58;10.30;;;4.20;;
2998;SDS011;1509;51.964;7.628;2023-01-01T10:53:36;9.00;;;4.80;;
2998;SDS011;1509;51.964;7.628;2023-01-01T10:56:16;6.70;;;3.60;;
2998;SDS011;1509;51.964;7.628;2023-01-01T10:58:46;8.60;;;4.07;;
2998;SDS011;1509;51.964;7.628;2023-01-01T11:01:19;7.53;;;4.20;;
2998;SDS011;1509;51.964;7.628;2023-01-01T11:03:59;7.20;;;4.47;;
2998;SDS011;1509;51.964;7.628;2023-01-01T11:06:46;8.50;;;4.53;;
2998;SDS011;1509;51.964;7.628;2023-01-01T11:09:20;11.03;;;4.90;;
2998;SDS011;1509;51.964;7.628;2023-01-01T11:12:00;9.23;;;5.17;;
2998;SDS011;1509;51.964;7.628;2023-01-01T11:15:03;16.10;;;5.83;;
2998;SDS011;1509;51.964;7.628;2023-01-01T11:17:27;7.73;;;4.60;;
2998;SDS011;1509;51.964;7.628;2023-01-01T11:19:56;11.70;;;5.87;;
2998;SDS011;1509;51.964;7.628;2023-01-01T11:22:42;10.50;;;4.53;;
2998;SDS011;1509;51.964;7.628;2023-01-01T11:27:49;14.30;;;4.80;;
2998;SDS011;1509;51.964;7.628;2023-01-01T11:32:45;7.80;;;5.30;;
2998;SDS011;1509;51.964;7.628;2023-01-01T11:35:17;8.50;;;4.43;;
2998;SDS011;1509;51.964;7.628;2023-01-01T11:37:45;8.93;;;4.70;;
2998;SDS011;1509;51.964;7.628;2023-01-01T11:40:31;11.67;;;4.63;;
2998;SDS011;1509;51.964;7.628;2023-01-01T11:43:02;12.10;;;4.30;;
2998;SDS011;1509;51.964;7.628;2023-01-01T11:45:31;8.20;;;5.03;;
2998;SDS011;1509;51.964;7.628;2023-01-01T11:47:59;7.90;;;3.93;;
2998;SDS011;1509;51.964;7.628;2023-01-01T11:50:33;8.93;;;4.80;;
2998;SDS011;1509;51.964;7.628;2023-01-01T12:00:51;8.23;;;4.27;;
2998;SDS011;1509;51.964;7.628;2023-01-01T12:03:24;10.10;;;4.10;;
2998;SDS011;1509;51.964;7.628;2023-01-01T12:06:33;6.90;;;4.47;;
2998;SDS011;1509;51.964;7.628;2023-01-01T12:08:55;7.53;;;4.80;;
2998;SDS011;1509;51.964;7.628;2023-01-01T12:11:32;5.83;;;3.47;;
2998;SDS011;1509;51.964;7.628;2023-01-01T12:14:18;8.03;;;4.73;;
2998;SDS011;1509;51.964;7.628;2023-01-01T12:17:02;10.50;;;5.07;;
2998;SDS011;1509;51.964;7.628;2023-01-01T12:19:31;9.90;;;4.00;;
2998;SDS011;1509;51.964;7.628;2023-01-01T12:22:02;9.37;;;3.40;;
2998;SDS011;1509;51.964;7.628;2023-01-01T12:24:33;8.50;;;2.83;;
2998;SDS011;1509;51.964;7.628;2023-01-01T12:27:06;9.10;;;3.00;;
2998;SDS011;1509;51.964;7.628;2023-01-01T12:30:00;5.47;;;2.97;;
2998;SDS011;1509;51.964;7.628;2023-01-01T12:43:56;3.80;;;2.30;;
2998;SDS011;1509;51.964;7.628;2023-01-01T12:46:49;11.03;;;2.97;;
2998;SDS011;1509;51.964;7.628;2023-01-01T12:57:48;8.70;;;2.97;;
2998;SDS011;1509;51.964;7.628;2023-01-01T13:00:21;6.53;;;3.00;;
2998;SDS011;1509;51.964;7.628;2023-01-01T13:02:50;8.43;;;3.17;;
2998;SDS011;1509;51.964;7.628;2023-01-01T13:05:22;7.00;;;3.13;;
2998;SDS011;1509;51.964;7.628;2023-01-01T13:08:00;6.47;;;3.10;;
2998;SDS011;1509;51.964;7.628;2023-01-01T13:10:30;7.50;;;3.17;;
2998;SDS011;1509;51.964;7.628;2023-01-01T13:13:07;6.57;;;3.37;;
2998;SDS011;1509;51.964;7.628;2023-01-01T13:15:48;5.33;;;2.90;;
2998;SDS011;1509;51.964;7.628;2023-01-01T13:18:28;4.33;;;1.97;;
2998;SDS011;1509;51.964;7.628;2023-01-01T13:21:02;4.77;;;3.00;;
2998;SDS011;1509;51.964;7.628;2023-01-01T13:23:47;6.43;;;2.60;;
2998;SDS011;1509;51.964;7.628;2023-01-01T13:42:36;5.50;;;2.67;;
2998;SDS011;1509;51.964;7.628;2023-01-01T13:45:41;7.00;;;2.60;;
2998;SDS011;1509;51.964;7.628;2023-01-01T13:48:13;3.20;;;2.37;;
2998;SDS011;1509;51.964;7.628;2023-01-01T13:54:22;4.47;;;2.63;;
2998;SDS011;1509;51.964;7.628;2023-01-01T13:57:19;5.47;;;2.83;;
2998;SDS011;1509;51.964;7.628;2023-01-01T14:03:00;6.67;;;2.63;;
2998;SDS011;1509;51.964;7.628;2023-01-01T14:05:41;6.40;;;2.47;;
2998;SDS011;1509;51.964;7.628;2023-01-01T14:08:24;8.60;;;3.47;;
2998;SDS011;1509;51.964;7.628;2023-01-01T14:10:54;10.40;;;3.00;;
2998;SDS011;1509;51.964;7.628;2023-01-01T14:13:23;6.73;;;2.40;;
2998;SDS011;1509;51.964;7.628;2023-01-01T14:16:40;9.50;;;3.53;;
2998;SDS011;1509;51.964;7.628;2023-01-01T14:19:07;7.60;;;2.50;;
2998;SDS011;1509;51.964;7.628;2023-01-01T14:21:38;3.20;;;2.10;;
2998;SDS011;1509;51.964;7.628;2023-01-01T14:24:07;3.70;;;2.60;;
2998;SDS011;1509;51.964;7.628;2023-01-01T14:26:37;7.53;;;2.87;;
2998;SDS011;1509;51.964;7.628;2023-01-01T14:29:09;5.97;;;2.63;;
2998;SDS011;1509;51.964;7.628;2023-01-01T14:32:12;8.67;;;2.83;;
2998;SDS011;1509;51.964;7.628;2023-01-01T14:34:56;7.40;;;3.50;;
2998;SDS011;1509;51.964;7.628;2023-01-01T14:37:26;8.67;;;2.67;;
2998;SDS011;1509;51.964;7.628;2023-01-01T14:40:10;5.10;;;2.67;;
2998;SDS011;1509;51.964;7.628;2023-01-01T14:42:41;4.03;;;2.90;;
2998;SDS011;1509;51.964;7.628;2023-01-01T14:45:14;6.67;;;3.00;;
2998;SDS011;1509;51.964;7.628;2023-01-01T14:47:41;11.80;;;3.30;;
2998;SDS011;1509;51.964;7.628;2023-01-01T14:50:18;8.27;;;3.80;;
2998;SDS011;1509;51.964;7.628;2023-01-01T14:53:05;8.80;;;3.30;;
2998;SDS011;1509;51.964;7.628;2023-01-01T14:55:43;7.30;;;3.00;;
2998;SDS011;1509;51.964;7.628;2023-01-01T14:58:16;5.07;;;2.97;;
2998;SDS011;1509;51.964;7.628;2023-01-01T15:00:44;4.90;;;2.70;;
2998;SDS011;1509;51.964;7.628;2023-01-01T15:03:12;8.20;;;2.97;;
2998;SDS011;1509;51.964;7.628;2023-01-01T15:05:39;6.53;;;3.43;;
2998;SDS011;1509;51.964;7.628;2023-01-01T15:08:05;6.70;;;2.67;;
2998;SDS011;1509;51.964;7.628;2023-01-01T15:10:44;6.00;;;2.90;;
2998;SDS011;1509;51.964;7.628;2023-01-01T15:13:19;4.90;;;2.87;;
2998;SDS011;1509;51.964;7.628;2023-01-01T15:15:48;5.50;;;3.43;;
2998;SDS011;1509;51.964;7.628;2023-01-01T15:21:09;8.93;;;3.70;;
2998;SDS011;1509;51.964;7.628;2023-01-01T15:26:41;6.30;;;3.40;;
2998;SDS011;1509;51.964;7.628;2023-01-01T15:32:06;6.73;;;3.60;;
2998;SDS011;1509;51.964;7.628;2023-01-01T15:34:46;11.27;;;4.43;;
2998;SDS011;1509;51.964;7.628;2023-01-01T15:40:38;6.10;;;3.93;;
2998;SDS011;1509;51.964;7.628;2023-01-01T15:42:40;7.93;;;3.90;;
2998;SDS011;1509;51.964;7.628;2023-01-01T15:45:29;4.30;;;2.87;;
2998;SDS011;1509;51.964;7.628;2023-01-01T15:50:40;12.70;;;6.27;;
2998;SDS011;1509;51.964;7.628;2023-01-01T15:53:19;7.97;;;4.10;;
2998;SDS011;1509;51.964;7.628;2023-01-01T15:55:53;8.07;;;4.33;;
2998;SDS011;1509;51.964;7.628;2023-01-01T15:58:34;8.10;;;4.40;;
2998;SDS011;1509;51.964;7.628;2023-01-01T16:01:03;8.10;;;5.57;;
2998;SDS011;1509;51.964;7.628;2023-01-01T16:03:31;7.80;;;4.00;;
2998;SDS011;1509;51.964;7.628;2023-01-01T16:05:59;9.13;;;4.50;;
2998;SDS011;1509;51.964;7.628;2023-01-01T16:08:25;8.07;;;3.90;;
2998;SDS011;1509;51.964;7.628;2023-01-01T16:10:53;8.50;;;3.97;;
2998;SDS011;1509;51.964;7.628;2023-01-01T16:13:19;10.00;;;7.17;;
2998;SDS011;1509;51.964;7.628;2023-01-01T16:15:51;8.70;;;6.03;;
2998;SDS011;1509;51.964;7.628;2023-01-01T16:18:27;8.13;;;4.80;;
2998;SDS011;1509;51.964;7.628;2023-01-01T16:21:03;11.07;;;4.53;;
2998;SDS011;1509;51.964;7.628;2023-01-01T16:23:29;8.37;;;3.73;;
2998;SDS011;1509;51.964;7.628;2023-01-01T16:25:55;10.57;;;4.53;;
2998;SDS011;1509;51.964;7.628;2023-01-01T16:28:20;9.90;;;3.37;;
2998;SDS011;1509;51.964;7.628;2023-01-01T16:30:47;7.40;;;3.57;;
2998;SDS011;1509;51.964;7.628;2023-01-01T16:33:16;8.80;;;3.50;;
2998;SDS011;1509;51.964;7.628;2023-01-01T16:35:46;6.07;;;3.50;;
2998;SDS011;1509;51.964;7.628;2023-01-01T16:38:15;6.60;;;4.70;;
2998;SDS011;1509;51.964;7.628;2023-01-01T16:40:43;6.80;;;4.20;;
2998;SDS011;1509;51.964;7.628;2023-01-01T16:43:13;4.83;;;2.70;;
2998;SDS011;1509;51.964;7.628;2023-01-01T16:45:43;5.57;;;3.33;;
2998;SDS011;1509;51.964;7.628;2023-01-01T16:48:09;4.90;;;2.63;;
2998;SDS011;1509;51.964;7.628;2023-01-01T16:50:35;7.30;;;2.67;;
2998;SDS011;1509;51.964;7.628;2023-01-01T16:53:00;9.50;;;2.80;;
2998;SDS011;1509;51.964;7.628;2023-01-01T16:55:26;4.40;;;2.50;;
2998;SDS011;1509;51.964;7.628;2023-01-01T16:57:52;6.97;;;2.70;;
2998;SDS011;1509;51.964;7.628;2023-01-01T17:00:26;9.47;;;2.83;;
2998;SDS011;1509;51.964;7.628;2023-01-01T17:02:52;5.30;;;3.60;;
2998;SDS011;1509;51.964;7.628;2023-01-01T17:05:17;6.70;;;2.77;;
2998;SDS011;1509;51.964;7.628;2023-01-01T17:07:48;11.10;;;4.00;;
2998;SDS011;1509;51.964;7.628;2023-01-01T17:10:21;11.83;;;3.40;;
2998;SDS011;1509;51.964;7.628;2023-01-01T17:13:15;8.50;;;3.03;;
2998;SDS011;1509;51.964;7.628;2023-01-01T17:15:41;6.33;;;2.80;;
2998;SDS011;1509;51.964;7.628;2023-01-01T17:18:06;6.83;;;3.10;;
2998;SDS011;1509;51.964;7.628;2023-01-01T17:20:34;5.83;;;3.23;;
2998;SDS011;1509;51.964;7.628;2023-01-01T17:23:00;5.90;;;3.23;;